Time;durP1;ratioP1;P1;durP2;ratioP2;P2;SDS_P1;SDS_P2;PMS_P1;PMS_P2;Temp;Humidity;BMP_temperature;BMP_pressure;BME280_temperature;BME280_humidity;BME280_pressure;Samples;Min_cycle;Max_cycle;Signal;HPM_P1;HPM_P2
2023/08/23 00:02:06;;;;;;;1.67;1.52;;;;;;;;;;5077955;28;20147;-36
2023/08/23 00:04:34;;;;;;;2.22;1.48;;;23.40;85.20;;;;;;5077690;28;20128;-39
2023/08/23 00:07:03;;;;;;;1.80;1.40;;;22.20;85.40;;;;;;5074582;28;20059;-39
2023/08/23 00:09:31;;;;;;;1.90;1.50;;;21.40;85.10;;;;;;5054415;28;20486;-36
2023/08/23 00:11:58;;;;;;;2.22;1.60;;;21.80;71.00;;;;;;5054297;28;20056;-38
2023/08/23 00:14:24;;;;;;;2.55;1.50;;;22.30;69.90;;;;;;5071556;28;20136;-36
2023/08/23 00:16:51;;;;;;;1.45;1.30;;;21.90;85.20;;;;;;5059913;28;20048;-38
2023/08/23 00:19:18;;;;;;;2.05;1.50;;;22.20;84.60;;;;;;5054187;28;20128;-37
2023/08/23 00:21:45;;;;;;;1.50;1.35;;;;;;;;;;5054747;28;20151;-36
2023/08/23 00:24:12;;;;;;;1.75;1.40;;;22.80;85.60;;;;;;5055161;28;20073;-37
2023/08/23 00:26:40;;;;;;;1.83;1.40;;;21.30;71.40;;;;;;5054203;28;20132;-36
2023/08/23 00:29:06;;;;;;;2.10;1.50;;;22.80;72.90;;;;;;5054072;28;20124;-38
2023/08/23 00:31:33;;;;;;;1.70;1.60;;;22.50;77.20;;;;;;5053999;28;20704;-38
2023/08/23 00:34:00;;;;;;;2.08;1.60;;;22.10;74.20;;;;;;5053730;28;20132;-38
2023/08/23 00:36:26;;;;;;;1.50;1.40;;;22.40;84.60;;;;;;5058661;28;20556;-40
2023/08/23 00:38:54;;;;;;;2.08;1.58;;;22.30;72.50;;;;;;5073943;28;20556;-37
2023/08/23 00:41:21;;;;;;;1.88;1.50;;;;;;;;;;5063746;28;20041;-34
2023/08/23 00:43:50;;;;;;;1.77;1.40;;;21.80;83.10;;;;;;5053476;28;20502;-38
2023/08/23 00:46:16;;;;;;;1.83;1.55;;;21.90;84.40;;;;;;5053617;28;20128;-38
2023/08/23 00:48:44;;;;;;;2.33;1.60;;;;;;;;;;5053838;28;20649;-35
2023/08/23 00:51:12;;;;;;;2.70;1.67;;;;;;;;;;5053630;28;20545;-35
2023/08/23 00:53:38;;;;;;;2.83;1.70;;;22.10;84.90;;;;;;5053419;28;20045;-38
2023/08/23 00:56:05;;;;;;;2.33;1.60;;;22.30;84.90;;;;;;5053549;28;20135;-39
2023/08/23 00:58:32;;;;;;;1.75;1.60;;;;;;;;;;5054812;28;20131;-34
2023/08/23 01:01:00;;;;;;;1.65;1.42;;;22.00;85.40;;;;;;5053715;28;20128;-37
2023/08/23 01:03:27;;;;;;;1.73;1.48;;;22.30;72.40;;;;;;5069877;28;20127;-39
2023/08/23 01:06:00;;;;;;;1.90;1.60;;;22.30;68.40;;;;;;5073251;28;20135;-36
2023/08/23 01:08:32;;;;;;;2.13;1.35;;;22.20;68.30;;;;;;5073697;28;20136;-40
2023/08/23 01:11:04;;;;;;;1.88;1.67;;;22.20;80.90;;;;;;5053355;28;20564;-37
2023/08/23 01:13:34;;;;;;;2.13;1.65;;;22.20;84.90;;;;;;5054351;28;20072;-36
2023/08/23 01:16:02;;;;;;;1.70;1.50;;;22.80;85.20;;;;;;5052993;28;20128;-39
2023/08/23 01:18:29;;;;;;;1.80;1.40;;;22.10;85.30;;;;;;5053234;28;20476;-40
2023/08/23 01:20:55;;;;;;;1.75;1.60;;;;;;;;;;5052805;28;20128;-36
2023/08/23 01:23:23;;;;;;;1.65;1.48;;;22.20;84.60;;;;;;5053347;28;20409;-37
2023/08/23 01:25:50;;;;;;;2.08;1.63;;;21.20;84.50;;;;;;5053155;28;20132;-37
2023/08/23 01:28:17;;;;;;;2.08;1.50;;;22.00;80.00;;;;;;5052666;28;20139;-35
2023/08/23 01:30:44;;;;;;;1.50;1.40;;;22.70;85.20;;;;;;5054307;28;20152;-36
2023/08/23 01:33:14;;;;;;;1.65;1.33;;;22.20;68.30;;;;;;5052782;28;20151;-34
2023/08/23 01:35:43;;;;;;;1.88;1.40;;;21.80;84.70;;;;;;5052897;28;20051;-39
2023/08/23 01:38:09;;;;;;;1.73;1.48;;;22.10;84.20;;;;;;5071741;28;20474;-40
2023/08/23 01:40:37;;;;;;;1.70;1.42;;;22.10;85.30;;;;;;5072563;28;20135;-39
2023/08/23 01:43:04;;;;;;;2.10;1.40;;;22.20;85.30;;;;;;5072478;28;20143;-40
2023/08/23 01:45:31;;;;;;;1.52;1.42;;;;;;;;;;5071006;28;20120;-36
2023/08/23 01:47:58;;;;;;;1.60;1.50;;;22.60;84.80;;;;;;5052658;28;20128;-40
2023/08/23 01:50:25;;;;;;;1.83;1.50;;;22.70;85.20;;;;;;5052591;28;20139;-38
2023/08/23 01:52:52;;;;;;;1.80;1.60;;;21.50;80.20;;;;;;5052285;28;20128;-39
2023/08/23 01:55:20;;;;;;;1.80;1.50;;;21.90;84.30;;;;;;5052568;28;20137;-39
2023/08/23 01:57:48;;;;;;;2.08;1.40;;;21.90;84.50;;;;;;5053501;28;20051;-39
2023/08/23 02:00:15;;;;;;;1.83;1.65;;;22.40;84.70;;;;;;5052428;28;20140;-36
2023/08/23 02:02:42;;;;;;;2.50;1.45;;;22.40;85.50;;;;;;5061937;28;20474;-38
2023/08/23 02:05:09;;;;;;;2.08;1.45;;;;;;;;;;5072090;28;20502;-39
2023/08/23 02:07:36;;;;;;;1.80;1.40;;;22.30;76.20;;;;;;5072420;28;20128;-40
2023/08/23 02:10:03;;;;;;;1.58;1.40;;;22.10;74.20;;;;;;5071643;28;20079;-39
2023/08/23 02:12:29;;;;;;;2.95;1.42;;;22.00;85.30;;;;;;5071478;28;20132;-40
2023/08/23 02:14:57;;;;;;;1.80;1.38;;;22.40;77.40;;;;;;5072015;28;20131;-38
2023/08/23 02:17:24;;;;;;;1.45;1.35;;;21.80;75.20;;;;;;5071937;28;20254;-36
2023/08/23 02:19:51;;;;;;;1.60;1.38;;;22.70;84.80;;;;;;5072445;28;20076;-37
2023/08/23 02:22:17;;;;;;;1.60;1.40;;;20.90;83.90;;;;;;5071929;28;20131;-35
2023/08/23 02:24:45;;;;;;;2.58;1.58;;;;;;;;;;5069121;28;20136;-37
2023/08/23 02:27:11;;;;;;;1.73;1.40;;;23.00;84.90;;;;;;5051912;28;20124;-39
2023/08/23 02:29:38;;;;;;;1.92;1.60;;;22.00;84.50;;;;;;5051938;28;20124;-39
2023/08/23 02:32:06;;;;;;;1.20;1.10;;;21.70;77.50;;;;;;5051345;28;20144;-38
2023/08/23 02:34:33;;;;;;;1.77;1.38;;;22.00;84.30;;;;;;5051709;28;20562;-38
2023/08/23 02:37:00;;;;;;;1.40;1.30;;;23.10;85.10;;;;;;5060915;28;20140;-38
2023/08/23 02:39:26;;;;;;;1.63;1.35;;;22.30;85.10;;;;;;5071189;28;20613;-38
2023/08/23 02:41:53;;;;;;;1.38;1.27;;;21.10;77.60;;;;;;5071929;28;20127;-36
2023/08/23 02:44:20;;;;;;;1.33;1.23;;;;;;;;;;5071467;28;20135;-40
2023/08/23 02:46:47;;;;;;;2.15;1.40;;;;;;;;;;5070967;28;20128;-35
2023/08/23 02:49:15;;;;;;;1.40;1.30;;;22.20;84.50;;;;;;5051679;28;20562;-38
2023/08/23 02:51:42;;;;;;;1.40;1.30;;;21.90;85.20;;;;;;5051854;28;20127;-38
2023/08/23 02:54:09;;;;;;;1.63;1.40;;;;;;;;;;5051548;28;20558;-40
2023/08/23 02:56:37;;;;;;;1.70;1.60;;;;;;;;;;5069834;28;20060;-39
2023/08/23 02:59:04;;;;;;;1.40;1.30;;;;;;;;;;5071453;28;20139;-35
2023/08/23 03:01:30;;;;;;;1.25;1.15;;;21.60;84.20;;;;;;5071400;28;20128;-36
2023/08/23 03:03:57;;;;;;;1.67;1.30;;;22.60;84.80;;;;;;5071474;28;20128;-39
2023/08/23 03:06:25;;;;;;;1.35;1.20;;;21.80;75.30;;;;;;5071523;28;20129;-37
2023/08/23 03:08:52;;;;;;;1.40;1.30;;;;;;;;;;5071643;28;20128;-33
2023/08/23 03:11:19;;;;;;;1.33;1.23;;;22.40;84.70;;;;;;5070606;28;20123;-39
2023/08/23 03:13:46;;;;;;;2.28;1.42;;;;;;;;;;5071498;28;20048;-36
2023/08/23 03:16:12;;;;;;;1.17;1.08;;;21.90;85.20;;;;;;5071713;28;20080;-39
2023/08/23 03:18:39;;;;;;;1.30;1.20;;;22.90;85.00;;;;;;5071578;28;20087;-39
2023/08/23 03:21:06;;;;;;;1.50;1.10;;;;;;;;;;5071282;28;20123;-38
2023/08/23 03:23:34;;;;;;;1.55;1.15;;;21.70;84.40;;;;;;5071207;28;20084;-39
2023/08/23 03:26:02;;;;;;;2.05;1.20;;;;;;;;;;5071492;28;20147;-40
2023/08/23 03:28:29;;;;;;;1.33;1.10;;;21.80;84.30;;;;;;5069944;28;20045;-36
2023/08/23 03:31:01;;;;;;;1.15;1.05;;;22.20;84.70;;;;;;5071572;28;20140;-39
2023/08/23 03:33:29;;;;;;;2.03;1.20;;;;;;;;;;5070963;28;20053;-35
2023/08/23 03:35:55;;;;;;;1.65;1.30;;;22.00;85.30;;;;;;5071013;28;20144;-35
2023/08/23 03:38:22;;;;;;;1.20;1.10;;;;;;;;;;5071243;28;20044;-36
2023/08/23 03:40:51;;;;;;;1.17;1.08;;;22.30;84.80;;;;;;5071103;28;20127;-36
2023/08/23 03:43:17;;;;;;;1.17;1.08;;;22.30;84.60;;;;;;5072041;28;20127;-40
2023/08/23 03:45:47;;;;;;;1.25;1.15;;;21.90;84.40;;;;;;5054926;28;20128;-38
2023/08/23 03:48:14;;;;;;;2.45;1.00;;;;;;;;;;5055273;28;20468;-38
2023/08/23 03:50:41;;;;;;;1.25;1.08;;;;;;;;;;5054920;28;20478;-33
2023/08/23 03:53:08;;;;;;;1.17;1.08;;;20.90;83.80;;;;;;5054537;28;20131;-37
2023/08/23 03:55:36;;;;;;;1.13;1.02;;;21.80;81.00;;;;;;5055053;28;20132;-37
2023/08/23 03:58:05;;;;;;;1.10;1.00;;;22.20;70.10;;;;;;5061005;28;20071;-39
2023/08/23 04:00:31;;;;;;;1.20;1.10;;;22.40;84.00;;;;;;5074157;28;20139;-39
2023/08/23 04:03:00;;;;;;;1.13;1.02;;;22.20;84.80;;;;;;5074416;28;20132;-36
2023/08/23 04:05:26;;;;;;;1.20;1.10;;;22.40;85.20;;;;;;5074383;28;20044;-40
2023/08/23 04:07:53;;;;;;;1.10;1.00;;;;;;;;;;5074514;28;20453;-35
2023/08/23 04:10:20;;;;;;;1.05;0.98;;;22.90;84.90;;;;;;5074709;28;20061;-40
2023/08/23 04:12:47;;;;;;;1.40;1.10;;;22.90;84.80;;;;;;5074160;28;20576;-36
2023/08/23 04:15:15;;;;;;;1.20;1.10;;;21.90;68.00;;;;;;5074736;28;20124;-37
2023/08/23 04:17:42;;;;;;;1.15;1.05;;;;;;;;;;5059029;28;20506;-36
2023/08/23 04:20:10;;;;;;;1.70;1.23;;;21.90;68.00;;;;;;5054141;28;20443;-38
2023/08/23 04:22:36;;;;;;;1.23;1.13;;;22.30;84.90;;;;;;5054206;28;20092;-36
2023/08/23 04:25:03;;;;;;;1.33;1.23;;;21.80;85.20;;;;;;5054617;28;20132;-37
2023/08/23 04:27:30;;;;;;;1.20;1.10;;;21.50;78.00;;;;;;5054275;28;20123;-37
2023/08/23 04:29:57;;;;;;;1.75;1.08;;;21.70;84.40;;;;;;5054167;28;20561;-38
2023/08/23 04:32:25;;;;;;;2.85;1.17;;;22.30;84.60;;;;;;5053578;28;20132;-37
2023/08/23 04:34:52;;;;;;;1.80;1.20;;;21.30;84.20;;;;;;5053855;28;20137;-36
2023/08/23 04:37:18;;;;;;;1.25;1.10;;;22.00;73.50;;;;;;5065678;28;20135;-35
2023/08/23 04:39:45;;;;;;;1.20;1.10;;;22.80;84.90;;;;;;5073645;28;20135;-35
2023/08/23 04:42:12;;;;;;;1.40;1.20;;;;;;;;;;5073551;28;20132;-41
2023/08/23 04:44:40;;;;;;;1.23;1.13;;;21.30;84.60;;;;;;5073949;28;20140;-36
2023/08/23 04:47:07;;;;;;;1.50;1.20;;;21.90;69.90;;;;;;5073758;28;20072;-35
2023/08/23 04:49:35;;;;;;;1.30;1.20;;;21.80;85.00;;;;;;5070056;28;20045;-38
2023/08/23 04:52:02;;;;;;;1.30;1.20;;;22.40;85.10;;;;;;5053394;28;20510;-36
2023/08/23 04:54:29;;;;;;;1.50;1.20;;;;;;;;;;5060669;28;20072;-34
2023/08/23 04:56:56;;;;;;;1.88;1.50;;;21.40;84.60;;;;;;5073795;28;20135;-38
2023/08/23 04:59:22;;;;;;;1.38;1.25;;;20.90;84.40;;;;;;5073633;28;20446;-38
2023/08/23 05:01:49;;;;;;;2.22;1.52;;;21.40;70.40;;;;;;5073257;28;20131;-35
2023/08/23 05:04:18;;;;;;;1.38;1.27;;;21.60;84.40;;;;;;5073396;28;20127;-36
2023/08/23 05:06:46;;;;;;;1.35;1.23;;;22.80;85.00;;;;;;5065938;28;20124;-38
2023/08/23 05:09:13;;;;;;;1.50;1.40;;;21.90;84.70;;;;;;5053506;28;20044;-39
2023/08/23 05:11:40;;;;;;;1.40;1.20;;;22.00;85.00;;;;;;5053411;28;20049;-36
2023/08/23 05:14:07;;;;;;;1.88;1.50;;;22.70;80.70;;;;;;5052777;28;20538;-37
2023/08/23 05:16:34;;;;;;;1.55;1.35;;;;;;;;;;5052839;28;20132;-35
2023/08/23 05:19:00;;;;;;;1.30;1.20;;;22.20;85.70;;;;;;5053210;28;20132;-36
2023/08/23 05:21:27;;;;;;;1.50;1.23;;;;;;;;;;5053061;28;20084;-35
2023/08/23 05:23:55;;;;;;;1.95;1.58;;;21.90;84.90;;;;;;5054275;28;20127;-37
2023/08/23 05:26:22;;;;;;;1.77;1.50;;;22.00;84.10;;;;;;5061387;28;20119;-37
2023/08/23 05:28:49;;;;;;;2.65;1.70;;;21.30;85.20;;;;;;5073110;28;20123;-38
2023/08/23 05:31:16;;;;;;;1.70;1.45;;;;;;;;;;5072803;28;20124;-39
2023/08/23 05:33:43;;;;;;;2.00;1.60;;;22.20;84.80;;;;;;5072725;28;20132;-36
2023/08/23 05:36:09;;;;;;;1.75;1.55;;;21.90;84.90;;;;;;5072397;28;20048;-39
2023/08/23 05:38:36;;;;;;;2.30;1.73;;;;;;;;;;5072227;28;20119;-36
2023/08/23 05:41:04;;;;;;;1.90;1.60;;;21.80;68.10;;;;;;5053331;28;20129;-39
2023/08/23 05:43:31;;;;;;;2.10;1.55;;;22.80;85.20;;;;;;5052659;28;20132;-39
2023/08/23 05:45:59;;;;;;;2.13;1.70;;;21.90;85.10;;;;;;5053127;28;20147;-37
2023/08/23 05:48:26;;;;;;;2.20;1.80;;;22.00;84.80;;;;;;5065074;28;20156;-39
2023/08/23 05:50:53;;;;;;;2.05;1.58;;;22.00;75.40;;;;;;5064787;28;20127;-37
2023/08/23 05:53:19;;;;;;;3.00;1.80;;;21.60;85.20;;;;;;5072334;28;20049;-30
2023/08/23 05:55:48;;;;;;;1.90;1.58;;;22.20;85.80;;;;;;5072658;28;20056;-30
2023/08/23 05:58:16;;;;;;;1.92;1.60;;;21.70;85.10;;;;;;5071052;28;20048;-30
2023/08/23 06:00:43;;;;;;;3.22;1.60;;;21.80;68.80;;;;;;5063687;28;20048;-32
2023/08/23 06:03:10;;;;;;;1.90;1.70;;;;;;;;;;5060870;28;20040;-33
2023/08/23 06:05:37;;;;;;;2.72;1.60;;;21.40;73.70;;;;;;5067742;28;20119;-33
2023/08/23 06:08:05;;;;;;;2.25;1.83;;;22.80;85.30;;;;;;5066545;28;20128;-30
2023/08/23 06:10:32;;;;;;;2.40;1.70;;;21.40;84.50;;;;;;5062399;28;20048;-31
2023/08/23 06:12:58;;;;;;;3.20;1.80;;;21.70;84.70;;;;;;5056399;28;20057;-30
2023/08/23 06:15:26;;;;;;;2.08;1.67;;;21.80;68.20;;;;;;5058523;28;20127;-35
2023/08/23 06:17:55;;;;;;;2.88;2.05;;;21.70;68.10;;;;;;5061230;28;20546;-35
2023/08/23 06:20:22;;;;;;;2.28;1.70;;;22.40;79.90;;;;;;5058189;28;20120;-31
2023/08/23 06:22:48;;;;;;;2.67;1.80;;;22.30;86.00;;;;;;5060185;28;20128;-30
2023/08/23 06:25:16;;;;;;;2.10;1.60;;;;;;;;;;5060646;28;20136;-35
2023/08/23 06:27:44;;;;;;;2.13;1.60;;;22.30;85.00;;;;;;5064024;28;20564;-30
2023/08/23 06:30:14;;;;;;;3.38;1.80;;;21.60;86.10;;;;;;5062565;28;20488;-30
2023/08/23 06:32:43;;;;;;;2.42;1.70;;;21.80;85.60;;;;;;5061942;28;20494;-30
2023/08/23 06:35:10;;;;;;;2.00;1.80;;;;;;;;;;5060309;28;20120;-34
2023/08/23 06:37:37;;;;;;;2.30;1.80;;;22.00;85.00;;;;;;5056592;28;20143;-30
2023/08/23 06:40:04;;;;;;;2.47;1.70;;;21.60;85.00;;;;;;5051843;28;20128;-30
2023/08/23 06:42:31;;;;;;;2.35;1.70;;;21.10;84.50;;;;;;5051763;28;20049;-31
2023/08/23 06:44:58;;;;;;;3.35;1.85;;;21.70;84.90;;;;;;5058637;28;20136;-31
2023/08/23 06:47:24;;;;;;;2.45;1.80;;;22.30;74.10;;;;;;5071740;28;20136;-33
2023/08/23 06:49:52;;;;;;;2.35;1.80;;;20.50;84.20;;;;;;5065931;28;20054;-38
2023/08/23 06:52:19;;;;;;;3.50;2.03;;;21.60;85.20;;;;;;5051197;28;20128;-40
2023/08/23 06:54:46;;;;;;;2.13;1.85;;;22.60;85.50;;;;;;5052112;28;20087;-36
2023/08/23 06:57:13;;;;;;;2.00;1.80;;;;;;;;;;5051099;28;20132;-36
2023/08/23 06:59:40;;;;;;;2.47;1.88;;;22.10;85.20;;;;;;5051844;28;20124;-34
2023/08/23 07:02:07;;;;;;;2.58;1.90;;;;;;;;;;5052227;28;20120;-33
2023/08/23 07:04:34;;;;;;;4.03;1.90;;;;;;;;;;5068493;28;20151;-36
2023/08/23 07:07:02;;;;;;;3.70;2.30;;;22.00;85.10;;;;;;5071442;28;20129;-29
2023/08/23 07:09:29;;;;;;;2.97;2.00;;;;;;;;;;5072101;28;20048;-35
2023/08/23 07:11:56;;;;;;;3.67;2.20;;;21.60;84.90;;;;;;5065530;28;20068;-30
2023/08/23 07:14:22;;;;;;;2.58;1.85;;;22.00;85.20;;;;;;5068647;28;20131;-32
2023/08/23 07:16:49;;;;;;;2.42;1.85;;;;;;;;;;5072165;28;20123;-33
2023/08/23 07:19:16;;;;;;;3.13;2.13;;;21.80;85.30;;;;;;5075461;28;20131;-31
2023/08/23 07:21:43;;;;;;;3.60;2.50;;;;;;;;;;5075310;28;20132;-30
2023/08/23 07:24:11;;;;;;;4.90;2.22;;;22.20;86.10;;;;;;5075379;28;20131;-31
2023/08/23 07:26:38;;;;;;;3.42;2.30;;;;;;;;;;5075506;28;20048;-31
2023/08/23 07:29:05;;;;;;;3.33;2.25;;;21.90;85.60;;;;;;5074923;28;20076;-31
2023/08/23 07:31:32;;;;;;;3.72;2.67;;;22.00;78.00;;;;;;5075330;28;20052;-31
2023/08/23 07:33:59;;;;;;;3.42;2.47;;;;;;;;;;5074088;28;20358;-31
2023/08/23 07:36:26;;;;;;;3.22;2.60;;;22.00;82.10;;;;;;5074865;28;20136;-30
2023/08/23 07:38:53;;;;;;;3.13;2.30;;;;;;;;;;5075303;28;20047;-31
2023/08/23 07:41:21;;;;;;;4.55;2.80;;;22.90;77.70;;;;;;5074910;28;20561;-31
2023/08/23 07:43:48;;;;;;;3.83;2.78;;;21.10;75.00;;;;;;5074754;28;20139;-31
2023/08/23 07:46:15;;;;;;;3.60;2.65;;;22.00;85.70;;;;;;5074890;28;20486;-35
2023/08/23 07:48:41;;;;;;;3.72;2.58;;;22.30;85.60;;;;;;5074820;28;20390;-37
2023/08/23 07:51:09;;;;;;;5.22;2.50;;;;;;;;;;5055403;28;20106;-36
2023/08/23 07:53:36;;;;;;;7.03;2.88;;;21.80;85.80;;;;;;5054931;28;20556;-36
2023/08/23 07:56:03;;;;;;;4.55;2.83;;;21.80;83.60;;;;;;5055245;28;20132;-35
2023/08/23 07:58:31;;;;;;;5.47;3.22;;;20.90;84.90;;;;;;5067432;28;20045;-37
2023/08/23 08:00:59;;;;;;;5.80;2.90;;;22.10;85.70;;;;;;5062647;28;20143;-31
2023/08/23 08:03:28;;;;;;;6.32;3.58;;;22.40;86.60;;;;;;5063228;28;20061;-31
2023/08/23 08:05:55;;;;;;;3.38;2.45;;;22.40;76.20;;;;;;5061184;28;20128;-30
2023/08/23 08:08:21;;;;;;;6.28;2.97;;;22.20;85.80;;;;;;5062371;28;20124;-30
2023/08/23 08:10:49;;;;;;;4.72;3.05;;;21.90;69.20;;;;;;5062626;28;20119;-30
2023/08/23 08:13:16;;;;;;;3.95;2.72;;;21.70;85.80;;;;;;5063853;28;20127;-31
2023/08/23 08:15:44;;;;;;;5.63;3.10;;;21.50;86.30;;;;;;5061400;28;20128;-30
2023/08/23 08:18:10;;;;;;;4.88;2.88;;;21.20;81.50;;;;;;5063940;28;20127;-31
2023/08/23 08:20:37;;;;;;;4.40;2.63;;;21.60;73.60;;;;;;5062160;28;20474;-31
2023/08/23 08:23:04;;;;;;;4.78;2.75;;;21.60;85.50;;;;;;5060788;28;20124;-31
2023/08/23 08:25:31;;;;;;;4.65;2.65;;;;;;;;;;5058179;28;20084;-38
2023/08/23 08:27:58;;;;;;;5.15;2.97;;;21.60;85.50;;;;;;5053486;28;20063;-37
2023/08/23 08:30:25;;;;;;;4.75;2.63;;;;;;;;;;5054314;28;20542;-36
2023/08/23 08:32:53;;;;;;;5.03;3.05;;;20.90;72.90;;;;;;5053851;28;20574;-35
2023/08/23 08:35:20;;;;;;;3.60;2.33;;;22.10;86.60;;;;;;5054140;28;20562;-37
2023/08/23 08:37:47;;;;;;;3.05;2.33;;;22.30;86.30;;;;;;5069515;28;20051;-38
2023/08/23 08:40:14;;;;;;;4.28;2.53;;;;;;;;;;5068148;28;20447;-36
2023/08/23 08:42:41;;;;;;;4.85;3.13;;;21.90;86.50;;;;;;5073433;28;20469;-35
2023/08/23 08:45:08;;;;;;;3.53;2.60;;;;;;;;;;5073789;28;20586;-35
2023/08/23 08:47:35;;;;;;;3.72;2.40;;;21.70;86.40;;;;;;5074058;28;20107;-39
2023/08/23 08:50:03;;;;;;;4.55;2.45;;;22.00;69.30;;;;;;5074093;28;20143;-38
2023/08/23 08:52:30;;;;;;;3.47;2.38;;;22.50;72.50;;;;;;5073699;28;20075;-35
2023/08/23 08:54:58;;;;;;;3.80;2.47;;;22.20;85.60;;;;;;5069277;28;20045;-37
2023/08/23 08:57:25;;;;;;;6.05;2.40;;;22.20;77.70;;;;;;5053513;28;20434;-36
2023/08/23 08:59:53;;;;;;;3.88;2.40;;;;;;;;;;5053695;28;20490;-34
2023/08/23 09:02:19;;;;;;;5.95;2.60;;;21.50;85.70;;;;;;5060552;28;20123;-39
2023/08/23 09:04:47;;;;;;;5.43;2.40;;;22.60;86.60;;;;;;5073863;28;20094;-39
2023/08/23 09:07:15;;;;;;;4.88;2.55;;;21.20;85.20;;;;;;5073620;28;20048;-37
2023/08/23 09:09:42;;;;;;;5.32;2.80;;;21.40;85.50;;;;;;5073508;28;20076;-36
2023/08/23 09:12:09;;;;;;;4.70;2.28;;;21.60;76.30;;;;;;5062230;28;20131;-36
2023/08/23 09:14:36;;;;;;;4.18;2.38;;;21.90;85.50;;;;;;5053556;28;20060;-40
2023/08/23 09:17:03;;;;;;;3.60;2.45;;;;;;;;;;5053628;28;20128;-34
2023/08/23 09:19:30;;;;;;;5.65;2.30;;;23.10;86.10;;;;;;5053356;28;20132;-40
2023/08/23 09:21:56;;;;;;;3.75;2.20;;;22.90;85.90;;;;;;5053026;28;20127;-39
2023/08/23 09:24:24;;;;;;;3.35;2.20;;;22.10;69.10;;;;;;5053128;28;20148;-38
2023/08/23 09:26:51;;;;;;;4.28;2.50;;;;;;;;;;5053111;28;20133;-32
2023/08/23 09:29:18;;;;;;;2.80;2.00;;;22.70;85.70;;;;;;5071611;28;20131;-30
2023/08/23 09:31:45;;;;;;;3.22;2.13;;;;;;;;;;5072909;28;20052;-34
2023/08/23 09:34:13;;;;;;;3.95;2.25;;;21.90;85.10;;;;;;5072576;28;20080;-31
2023/08/23 09:36:41;;;;;;;3.15;2.08;;;21.90;81.00;;;;;;5072468;28;20493;-31
2023/08/23 09:39:09;;;;;;;2.65;2.00;;;22.10;69.00;;;;;;5065064;28;20052;-33
2023/08/23 09:41:38;;;;;;;5.00;2.50;;;22.20;69.00;;;;;;5061758;28;20098;-33
2023/08/23 09:44:05;;;;;;;2.60;2.20;;;22.30;85.20;;;;;;5060559;28;20049;-30
2023/08/23 09:46:32;;;;;;;4.75;2.10;;;;;;;;;;5062580;28;20128;-31
2023/08/23 09:49:00;;;;;;;2.40;1.83;;;22.80;85.70;;;;;;5061591;28;20124;-32
2023/08/23 09:51:27;;;;;;;3.13;1.95;;;22.00;84.80;;;;;;5061542;28;20084;-31
2023/08/23 09:53:57;;;;;;;3.03;1.92;;;22.30;68.80;;;;;;5061543;28;20558;-32
2023/08/23 09:56:23;;;;;;;3.45;1.80;;;22.40;85.00;;;;;;5063229;28;20052;-30
2023/08/23 09:58:51;;;;;;;3.65;2.00;;;22.20;73.00;;;;;;5059888;28;20391;-33
2023/08/23 10:01:18;;;;;;;2.10;1.80;;;22.30;71.20;;;;;;5061460;28;20123;-31
2023/08/23 10:03:45;;;;;;;2.38;1.63;;;23.00;85.40;;;;;;5063124;28;20458;-31
2023/08/23 10:06:11;;;;;;;2.38;1.80;;;22.20;84.90;;;;;;5052557;28;20131;-31
2023/08/23 10:08:39;;;;;;;3.13;1.90;;;;;;;;;;5057297;28;20787;-34
2023/08/23 10:11:06;;;;;;;2.13;1.60;;;;;;;;;;5056040;28;20045;-31
2023/08/23 10:13:33;;;;;;;3.50;1.83;;;22.50;69.70;;;;;;5055620;28;20055;-32
2023/08/23 10:16:01;;;;;;;2.67;1.90;;;22.00;68.60;;;;;;5059479;28;20140;-30
2023/08/23 10:18:29;;;;;;;3.72;1.45;;;22.50;84.60;;;;;;5055112;28;20127;-31
2023/08/23 10:20:55;;;;;;;3.50;1.90;;;22.30;84.40;;;;;;5051832;28;20131;-31
2023/08/23 10:23:22;;;;;;;4.32;1.95;;;;;;;;;;5052287;28;20136;-31
2023/08/23 10:25:49;;;;;;;3.40;1.70;;;23.30;78.50;;;;;;5052549;28;20140;-31
2023/08/23 10:28:18;;;;;;;1.90;1.50;;;22.20;84.50;;;;;;5058493;28;20084;-30
2023/08/23 10:30:46;;;;;;;2.20;1.80;;;22.10;80.70;;;;;;5058124;28;20080;-30
2023/08/23 10:33:15;;;;;;;2.53;1.63;;;22.40;84.40;;;;;;5055913;28;20139;-30
2023/08/23 10:35:42;;;;;;;5.10;1.50;;;22.30;80.20;;;;;;5051911;28;20410;-31
2023/08/23 10:38:09;;;;;;;2.10;1.50;;;22.60;68.20;;;;;;5065282;28;20132;-36
2023/08/23 10:40:37;;;;;;;1.88;1.50;;;23.40;84.50;;;;;;5051800;28;20135;-30
2023/08/23 10:43:04;;;;;;;3.15;1.92;;;22.30;78.90;;;;;;5056737;28;20127;-31
2023/08/23 10:45:49;;;;;;;2.63;1.60;;;22.50;84.00;;;;;;5054375;28;20147;-30
2023/08/23 10:48:17;;;;;;;2.80;1.52;;;22.00;74.70;;;;;;5061366;28;20432;-31
2023/08/23 10:50:44;;;;;;;3.17;1.77;;;;;;;;;;5059564;28;20144;-34
2023/08/23 10:53:11;;;;;;;2.38;1.40;;;22.80;84.10;;;;;;5058424;28;20047;-30
2023/08/23 10:55:38;;;;;;;4.18;1.73;;;;;;;;;;5062574;28;20131;-31
2023/08/23 10:58:05;;;;;;;3.13;1.80;;;23.10;85.10;;;;;;5062484;28;20143;-30
2023/08/23 11:00:31;;;;;;;2.97;1.70;;;22.40;84.70;;;;;;5061607;28;20131;-29
2023/08/23 11:02:58;;;;;;;2.75;1.60;;;22.40;74.70;;;;;;5063886;28;20128;-32
2023/08/23 11:05:26;;;;;;;1.92;1.60;;;22.60;83.90;;;;;;5070708;28;20109;-30
2023/08/23 11:07:53;;;;;;;1.75;1.50;;;22.70;71.80;;;;;;5072021;28;20131;-30
2023/08/23 11:10:20;;;;;;;2.53;1.73;;;;;;;;;;5070588;28;20143;-35
2023/08/23 11:12:47;;;;;;;2.28;1.48;;;23.30;84.20;;;;;;5071395;28;20076;-30
2023/08/23 11:15:14;;;;;;;4.13;1.55;;;23.40;85.10;;;;;;5071371;28;20132;-30
2023/08/23 11:17:41;;;;;;;2.22;1.35;;;;;;;;;;5070020;28;20123;-35
2023/08/23 11:20:10;;;;;;;2.63;1.63;;;22.60;84.10;;;;;;5071716;28;20050;-31
2023/08/23 11:22:38;;;;;;;2.97;1.50;;;22.80;68.10;;;;;;5071398;28;20052;-33
2023/08/23 11:25:05;;;;;;;2.65;1.50;;;22.80;68.10;;;;;;5071507;28;20557;-34
2023/08/23 11:27:32;;;;;;;3.00;1.80;;;;;;;;;;5071299;28;20446;-34
2023/08/23 11:29:59;;;;;;;4.88;1.77;;;;;;;;;;5071397;28;20462;-35
2023/08/23 11:32:26;;;;;;;2.08;1.33;;;21.90;83.60;;;;;;5071072;28;20135;-39
2023/08/23 11:34:54;;;;;;;3.72;1.52;;;21.90;67.60;;;;;;5061106;28;20049;-38
2023/08/23 11:37:22;;;;;;;2.22;1.40;;;22.80;68.10;;;;;;5063566;28;20131;-34
2023/08/23 11:39:56;;;;;;;3.35;1.60;;;22.80;69.40;;;;;;5071079;28;20044;-35
2023/08/23 11:42:23;;;;;;;2.40;1.58;;;22.70;69.90;;;;;;5070969;28;20580;-35
2023/08/23 11:44:51;;;;;;;2.50;1.55;;;23.30;84.40;;;;;;5071392;28;20040;-36
2023/08/23 11:47:17;;;;;;;2.03;1.33;;;22.20;71.40;;;;;;5071280;28;20132;-35
2023/08/23 11:49:46;;;;;;;2.30;1.50;;;22.30;84.60;;;;;;5071148;28;20124;-36
2023/08/23 11:52:13;;;;;;;2.15;1.40;;;23.10;84.30;;;;;;5070389;28;20131;-36
2023/08/23 11:54:42;;;;;;;1.58;1.30;;;22.70;79.80;;;;;;5070719;28;20128;-37
2023/08/23 11:57:10;;;;;;;2.83;1.55;;;23.50;71.60;;;;;;5071459;28;20460;-35
2023/08/23 11:59:37;;;;;;;3.17;1.50;;;22.60;81.50;;;;;;5071047;28;22010;-36
2023/08/23 12:02:06;;;;;;;1.83;1.30;;;;;;;;;;5071059;28;20480;-34
2023/08/23 12:04:33;;;;;;;2.15;1.50;;;22.80;84.10;;;;;;5073489;28;20057;-38
2023/08/23 12:07:00;;;;;;;2.35;1.40;;;;;;;;;;5074121;28;20131;-36
2023/08/23 12:09:27;;;;;;;1.83;1.45;;;;;;;;;;5074084;28;20133;-37
2023/08/23 12:11:54;;;;;;;1.70;1.38;;;;;;;;;;5074640;28;20139;-35
2023/08/23 12:14:24;;;;;;;2.03;1.55;;;23.80;85.00;;;;;;5074564;28;20490;-36
2023/08/23 12:16:50;;;;;;;2.53;1.67;;;22.70;73.20;;;;;;5074338;28;20044;-37
2023/08/23 12:19:17;;;;;;;2.33;1.80;;;23.90;84.60;;;;;;5074352;28;20052;-37
2023/08/23 12:21:44;;;;;;;2.33;1.60;;;22.90;84.00;;;;;;5074175;28;20120;-40
2023/08/23 12:24:11;;;;;;;1.58;1.38;;;22.40;76.80;;;;;;5072082;28;20127;-35
2023/08/23 12:26:37;;;;;;;1.77;1.35;;;22.60;83.70;;;;;;5074202;28;20131;-38
2023/08/23 12:29:05;;;;;;;2.22;1.48;;;;;;;;;;5074512;28;20060;-33
2023/08/23 12:31:33;;;;;;;2.55;1.50;;;22.40;83.60;;;;;;5074049;28;20123;-37
2023/08/23 12:33:59;;;;;;;2.28;1.50;;;23.00;84.00;;;;;;5073748;28;20049;-36
2023/08/23 12:36:26;;;;;;;2.38;1.60;;;22.30;83.70;;;;;;5073486;28;20448;-40
2023/08/23 12:38:53;;;;;;;2.72;1.40;;;;;;;;;;5069419;28;20136;-36
2023/08/23 12:41:20;;;;;;;2.35;1.40;;;22.60;83.70;;;;;;5053906;28;20136;-40
2023/08/23 12:43:46;;;;;;;1.80;1.25;;;22.40;83.90;;;;;;5053565;28;20116;-39
2023/08/23 12:46:14;;;;;;;2.00;1.30;;;;;;;;;;5054274;28;20128;-35
2023/08/23 12:48:42;;;;;;;2.20;1.48;;;22.40;83.40;;;;;;5053528;28;20048;-37
2023/08/23 12:51:09;;;;;;;2.28;1.50;;;;;;;;;;5054204;28;20128;-39
2023/08/23 12:53:35;;;;;;;2.25;1.40;;;22.60;70.00;;;;;;5053696;28;20132;-37
2023/08/23 12:56:02;;;;;;;2.45;1.63;;;22.60;83.70;;;;;;5055151;28;20119;-32
2023/08/23 12:58:30;;;;;;;2.33;1.52;;;;;;;;;;5053652;28;20057;-35
2023/08/23 13:00:57;;;;;;;1.77;1.33;;;;;;;;;;5053428;28;20056;-34
2023/08/23 13:03:24;;;;;;;2.30;1.50;;;23.00;69.90;;;;;;5069106;28;20550;-31
2023/08/23 13:05:52;;;;;;;3.08;1.52;;;22.20;84.30;;;;;;5073474;28;20483;-30
2023/08/23 13:08:19;;;;;;;2.13;1.50;;;23.10;84.70;;;;;;5074073;28;20247;-30
2023/08/23 13:10:46;;;;;;;1.83;1.48;;;;;;;;;;5073244;28;20479;-33